Time;durP1;ratioP1;P1;durP2;ratioP2;P2;SDS_P1;SDS_P2;PMS_P1;PMS_P2;Temp;Humidity;BMP_temperature;BMP_pressure;BME280_temperature;BME280_humidity;BME280_pressure;Samples;Min_cycle;Max_cycle;Signal;HPM_P1;HPM_P2
2022/06/10 00:02:08;;;;;;;6.00;3.53;;;11.80;99.90;;;;;;5026186;28;20221;-78
2022/06/10 00:04:35;;;;;;;9.70;3.90;;;11.80;99.90;;;;;;5027645;28;20614;-77
2022/06/10 00:07:01;;;;;;;6.03;4.10;;;11.70;99.90;;;;;;5032992;28;20612;-78
2022/06/10 00:09:28;;;;;;;6.13;3.33;;;11.70;99.90;;;;;;5023405;28;20603;-78
2022/06/10 00:11:55;;;;;;;5.40;3.63;;;11.60;99.90;;;;;;5028151;28;20216;-78
2022/06/10 00:14:23;;;;;;;7.43;3.77;;;11.60;99.90;;;;;;5027020;28;20234;-78
2022/06/10 00:16:50;;;;;;;6.40;4.10;;;11.50;99.90;;;;;;5021364;28;20242;-78
2022/06/10 00:19:16;;;;;;;7.40;3.73;;;11.50;99.90;;;;;;5027151;28;20309;-77
2022/06/10 00:21:43;;;;;;;6.50;3.90;;;11.40;99.90;;;;;;5029051;28;20308;-77
2022/06/10 00:24:10;;;;;;;6.07;4.50;;;11.40;99.90;;;;;;5027750;28;20226;-77
2022/06/10 00:26:37;;;;;;;6.17;4.27;;;11.30;99.90;;;;;;5007544;28;20232;-77
2022/06/10 00:29:04;;;;;;;7.70;4.50;;;11.30;99.90;;;;;;5012595;28;20721;-77
2022/06/10 00:31:32;;;;;;;7.70;3.93;;;11.30;99.90;;;;;;5022143;28;20304;-77
2022/06/10 00:33:59;;;;;;;6.63;4.20;;;11.20;99.90;;;;;;5027427;28;20225;-77
2022/06/10 00:36:25;;;;;;;8.23;4.40;;;11.20;99.90;;;;;;5028674;28;20231;-77
2022/06/10 00:38:52;;;;;;;5.37;4.17;;;11.20;99.90;;;;;;5027986;28;20227;-77
2022/06/10 00:41:19;;;;;;;7.30;4.50;;;11.20;99.90;;;;;;5028099;28;20236;-78
2022/06/10 00:43:47;;;;;;;6.47;4.10;;;11.20;99.90;;;;;;5025988;28;20231;-78
2022/06/10 00:46:24;;;;;;;8.00;4.50;;;11.20;99.90;;;;;;5025652;28;20238;-77
2022/06/10 00:48:57;;;;;;;5.83;3.80;;;11.20;99.90;;;;;;5021915;28;20231;-77
2022/06/10 00:51:32;;;;;;;6.53;3.70;;;11.20;99.90;;;;;;5027904;28;20223;-78
2022/06/10 00:54:04;;;;;;;6.17;4.37;;;11.20;99.90;;;;;;5018093;28;20296;-77
2022/06/10 00:56:33;;;;;;;6.20;4.47;;;11.10;99.90;;;;;;5024649;28;20220;-77
2022/06/10 00:59:03;;;;;;;6.90;4.30;;;11.10;99.90;;;;;;5039917;28;20233;-77
2022/06/10 01:01:32;;;;;;;8.37;4.50;;;11.10;99.90;;;;;;5027596;28;20250;-78
2022/06/10 01:04:01;;;;;;;7.43;4.07;;;11.00;99.90;;;;;;5041515;28;20222;-77
2022/06/10 01:06:28;;;;;;;5.30;4.03;;;11.00;99.90;;;;;;5023346;28;20570;-77
2022/06/10 01:08:56;;;;;;;7.57;4.77;;;10.90;99.90;;;;;;5026829;28;20578;-77
2022/06/10 01:11:38;;;;;;;7.57;5.23;;;10.90;99.90;;;;;;5015613;28;20227;-77
2022/06/10 01:14:19;;;;;;;6.17;5.00;;;10.80;99.90;;;;;;5022601;28;20218;-77
2022/06/10 01:16:55;;;;;;;5.37;4.87;;;10.70;99.90;;;;;;5023355;28;20229;-77
2022/06/10 01:19:46;;;;;;;7.97;4.60;;;10.70;99.90;;;;;;5025978;28;20224;-77
2022/06/10 01:22:36;;;;;;;6.13;4.67;;;10.70;99.90;;;;;;5023223;28;20229;-78
2022/06/10 01:25:36;;;;;;;7.67;4.57;;;10.60;99.90;;;;;;5021377;28;20781;-76
2022/06/10 01:28:18;;;;;;;6.77;4.83;;;10.60;99.90;;;;;;5028959;28;20613;-77
2022/06/10 01:31:16;;;;;;;4.40;4.00;;;10.60;99.90;;;;;;5025001;28;20279;-77
2022/06/10 01:34:00;;;;;;;8.53;4.40;;;10.50;99.90;;;;;;5016463;28;20236;-77
2022/06/10 01:36:34;;;;;;;7.27;5.03;;;10.50;99.90;;;;;;5023539;28;20229;-77
2022/06/10 01:39:07;;;;;;;6.60;4.90;;;10.40;99.90;;;;;;5023043;28;20234;-77
2022/06/10 01:41:51;;;;;;;10.00;5.43;;;10.40;99.90;;;;;;5023351;28;20230;-77
2022/06/10 01:44:29;;;;;;;7.67;5.07;;;10.30;99.90;;;;;;5020515;28;20712;-77
2022/06/10 01:47:04;;;;;;;5.90;4.90;;;10.30;99.90;;;;;;5025394;28;20301;-77
2022/06/10 01:49:36;;;;;;;6.77;5.50;;;10.20;99.90;;;;;;5024845;28;20239;-77
2022/06/10 01:52:09;;;;;;;5.87;4.67;;;10.20;99.90;;;;;;5035863;28;20690;-77
2022/06/10 01:54:42;;;;;;;8.03;5.27;;;10.10;99.90;;;;;;5026247;28;20226;-77
2022/06/10 01:57:14;;;;;;;6.40;5.00;;;10.10;99.90;;;;;;5030500;28;20229;-77
2022/06/10 01:59:45;;;;;;;6.57;5.40;;;10.10;99.90;;;;;;5021338;28;20308;-78
2022/06/10 02:02:18;;;;;;;5.57;4.97;;;10.10;99.90;;;;;;5023219;28;20259;-79
2022/06/10 02:04:49;;;;;;;6.67;5.60;;;10.10;99.90;;;;;;5024526;28;20228;-78
2022/06/10 02:07:22;;;;;;;7.53;4.20;;;10.00;99.90;;;;;;5023021;28;20235;-78
2022/06/10 02:09:52;;;;;;;7.60;5.30;;;10.00;99.90;;;;;;5024120;28;20224;-78
2022/06/10 02:12:23;;;;;;;5.63;4.70;;;10.00;99.90;;;;;;5022315;28;20228;-78
2022/06/10 02:14:54;;;;;;;6.40;4.67;;;9.90;99.90;;;;;;5026809;28;20342;-78
2022/06/10 02:17:26;;;;;;;4.90;4.30;;;9.90;99.90;;;;;;5025040;28;20252;-77
2022/06/10 02:19:58;;;;;;;5.90;4.87;;;9.90;99.90;;;;;;5018933;28;20318;-78
2022/06/10 02:22:34;;;;;;;5.67;4.77;;;9.80;99.90;;;;;;5029024;28;20224;-77
2022/06/10 02:25:05;;;;;;;5.07;4.40;;;9.80;99.90;;;;;;5022580;28;20231;-77
2022/06/10 02:27:37;;;;;;;8.60;4.67;;;9.80;99.90;;;;;;5023371;28;20258;-77
2022/06/10 02:30:07;;;;;;;7.13;4.63;;;9.70;99.90;;;;;;5020600;28;20234;-77
2022/06/10 02:32:37;;;;;;;5.27;4.10;;;9.70;99.90;;;;;;5018815;28;20224;-77
2022/06/10 02:35:05;;;;;;;5.73;4.77;;;9.70;99.90;;;;;;5021432;28;20827;-78
2022/06/10 02:37:38;;;;;;;7.43;5.37;;;9.60;99.90;;;;;;5020282;28;20762;-77
2022/06/10 02:40:11;;;;;;;6.83;5.23;;;9.60;99.90;;;;;;5018459;28;20229;-77
2022/06/10 02:42:46;;;;;;;13.70;6.57;;;9.60;99.90;;;;;;5021034;28;20259;-77
2022/06/10 02:45:23;;;;;;;8.47;5.00;;;9.60;99.90;;;;;;5022131;28;20871;-77
2022/06/10 02:47:57;;;;;;;7.40;4.80;;;9.60;99.90;;;;;;5025509;28;20631;-77
2022/06/10 02:50:24;;;;;;;7.43;5.47;;;9.60;99.90;;;;;;5026253;28;20234;-77
2022/06/10 02:52:52;;;;;;;7.30;6.43;;;9.60;99.90;;;;;;5022846;28;20224;-78
2022/06/10 02:55:23;;;;;;;9.10;5.80;;;9.60;99.90;;;;;;5020433;28;20231;-78
2022/06/10 03:03:45;;;;;;;7.90;6.80;;;9.60;99.90;;;;;;5024703;28;20370;-78
2022/06/10 03:06:17;;;;;;;6.80;5.90;;;9.60;99.90;;;;;;5020840;28;20227;-78
2022/06/10 03:08:48;;;;;;;14.43;7.60;;;9.60;99.90;;;;;;5023218;28;20244;-77
2022/06/10 03:11:24;;;;;;;11.07;7.50;;;9.60;99.90;;;;;;5034032;28;20251;-78
2022/06/10 03:14:03;;;;;;;9.87;7.10;;;9.70;99.90;;;;;;5018928;28;20228;-78
2022/06/10 03:16:50;;;;;;;9.53;7.27;;;9.60;99.90;;;;;;5019656;28;20224;-78
2022/06/10 03:19:40;;;;;;;10.53;7.23;;;9.70;99.90;;;;;;5018303;28;20243;-78
2022/06/10 03:22:17;;;;;;;14.87;8.53;;;9.70;99.90;;;;;;5020440;28;20224;-79
2022/06/10 03:24:56;;;;;;;14.70;8.73;;;9.70;99.90;;;;;;5016032;28;20728;-80
2022/06/10 03:27:29;;;;;;;13.90;8.67;;;9.70;99.90;;;;;;5033174;28;20281;-79
2022/06/10 03:30:06;;;;;;;13.17;8.97;;;9.70;99.90;;;;;;5033986;28;20592;-79
2022/06/10 03:32:39;;;;;;;12.83;9.40;;;9.70;99.90;;;;;;5021340;28;20634;-78
2022/06/10 03:35:12;;;;;;;11.13;8.33;;;9.70;99.90;;;;;;5021454;28;20710;-78
2022/06/10 03:37:40;;;;;;;18.47;9.37;;;9.70;99.90;;;;;;5022113;28;20259;-84
2022/06/10 03:40:13;;;;;;;14.07;9.63;;;9.80;99.90;;;;;;5013798;28;20224;-79
2022/06/10 03:42:46;;;;;;;12.37;8.53;;;9.80;99.90;;;;;;5022497;28;20224;-78
2022/06/10 03:45:17;;;;;;;14.40;8.40;;;9.80;99.90;;;;;;5016444;28;20308;-79
2022/06/10 03:47:45;;;;;;;15.00;8.07;;;9.80;99.90;;;;;;5017480;28;20314;-78
2022/06/10 03:50:16;;;;;;;13.37;8.10;;;9.90;99.90;;;;;;5018040;28;20312;-78
2022/06/10 03:52:44;;;;;;;12.53;7.77;;;9.90;99.90;;;;;;5026513;28;20549;-79
2022/06/10 03:55:15;;;;;;;12.93;8.10;;;9.90;99.90;;;;;;5029596;28;20222;-78
2022/06/10 03:57:42;;;;;;;10.87;8.17;;;10.00;99.90;;;;;;5018037;28;20229;-78
2022/06/10 04:00:13;;;;;;;15.23;8.83;;;10.00;99.90;;;;;;5030923;28;20221;-79
2022/06/10 04:02:40;;;;;;;14.87;7.90;;;10.00;99.90;;;;;;5026568;28;20297;-78
2022/06/10 04:05:08;;;;;;;10.63;7.57;;;10.10;99.90;;;;;;5023397;28;20221;-79
2022/06/10 04:07:36;;;;;;;13.43;8.10;;;10.10;99.90;;;;;;5021940;28;20228;-79
2022/06/10 04:10:04;;;;;;;11.77;8.13;;;10.10;99.90;;;;;;5025819;28;20309;-78
2022/06/10 04:12:30;;;;;;;13.33;8.57;;;10.20;99.90;;;;;;5028428;28;20234;-78
2022/06/10 04:14:57;;;;;;;11.77;7.57;;;10.20;99.90;;;;;;5022552;28;20651;-78
2022/06/10 04:17:24;;;;;;;14.17;8.60;;;10.20;99.90;;;;;;5029728;28;20303;-78
2022/06/10 04:19:52;;;;;;;13.30;8.17;;;10.20;99.90;;;;;;5027402;28;20232;-78
2022/06/10 04:22:18;;;;;;;14.27;9.20;;;10.30;99.90;;;;;;5029953;28;21819;-78
2022/06/10 04:24:46;;;;;;;13.97;9.20;;;10.30;99.90;;;;;;5026363;28;20217;-78
2022/06/10 04:27:13;;;;;;;22.17;9.47;;;10.30;99.90;;;;;;5029377;28;20252;-79
2022/06/10 04:29:40;;;;;;;17.00;9.00;;;10.40;99.90;;;;;;5019922;28;20229;-77
2022/06/10 04:32:07;;;;;;;27.67;9.70;;;10.40;99.90;;;;;;5024793;28;20296;-80
2022/06/10 04:34:34;;;;;;;13.47;9.17;;;10.40;99.90;;;;;;5018768;28;20546;-82
2022/06/10 04:37:01;;;;;;;14.40;9.20;;;10.50;99.90;;;;;;5027217;28;20331;-85
2022/06/10 04:39:28;;;;;;;13.07;9.50;;;10.50;99.90;;;;;;5026532;28;20219;-84
2022/06/10 04:41:56;;;;;;;14.10;9.63;;;10.60;99.90;;;;;;5023799;28;20218;-82
2022/06/10 04:44:23;;;;;;;15.50;9.50;;;10.60;99.90;;;;;;5026676;28;20224;-82
2022/06/10 04:46:49;;;;;;;15.57;8.87;;;10.70;99.90;;;;;;5031350;28;20667;-81
2022/06/10 04:49:16;;;;;;;16.10;9.80;;;10.70;99.90;;;;;;5031097;28;20229;-81
2022/06/10 04:51:43;;;;;;;12.77;8.73;;;10.80;99.90;;;;;;5028920;28;20230;-82
2022/06/10 04:54:10;;;;;;;12.10;9.70;;;10.80;99.90;;;;;;5029200;28;20650;-82
2022/06/10 04:56:38;;;;;;;16.03;9.53;;;10.90;99.90;;;;;;5028498;28;20236;-82
2022/06/10 04:59:06;;;;;;;11.57;7.73;;;11.00;99.90;;;;;;5022856;28;20271;-82
2022/06/10 05:01:33;;;;;;;15.20;8.70;;;11.00;99.90;;;;;;5028001;28;20221;-82
2022/06/10 05:04:00;;;;;;;9.97;7.43;;;11.10;99.90;;;;;;5029594;28;20220;-84
2022/06/10 05:06:27;;;;;;;11.20;7.73;;;11.20;99.90;;;;;;5031988;28;20238;-82
2022/06/10 05:08:53;;;;;;;10.00;7.03;;;11.30;99.90;;;;;;5021498;28;20316;-82
2022/06/10 05:11:20;;;;;;;9.87;7.20;;;11.40;99.90;;;;;;5026213;28;20225;-82
2022/06/10 05:13:47;;;;;;;10.97;7.43;;;11.40;99.90;;;;;;5028348;28;20239;-81
2022/06/10 05:16:15;;;;;;;13.03;7.10;;;11.50;99.90;;;;;;5028040;28;20233;-82
2022/06/10 05:18:42;;;;;;;13.00;7.53;;;11.60;99.90;;;;;;5026113;28;20225;-83
2022/06/10 05:21:10;;;;;;;10.30;7.23;;;11.60;99.90;;;;;;5022829;28;20298;-81
2022/06/10 05:23:37;;;;;;;13.10;7.07;;;11.70;99.90;;;;;;5027166;28;20221;-80
2022/06/10 05:26:04;;;;;;;12.73;6.70;;;11.70;99.90;;;;;;5030548;28;20227;-81
2022/06/10 05:28:31;;;;;;;8.70;5.87;;;11.80;99.90;;;;;;5024870;28;20293;-80
2022/06/10 05:30:57;;;;;;;11.33;6.37;;;11.90;99.90;;;;;;5028624;28;20296;-81
2022/06/10 05:34:44;;;;;;;10.77;6.47;;;11.90;99.90;;;;;;5030541;28;20236;-80
2022/06/10 05:36:12;;;;;;;8.87;5.87;;;12.00;99.90;;;;;;5035204;28;20659;-81
2022/06/10 05:38:39;;;;;;;10.03;5.80;;;12.10;99.90;;;;;;5023634;28;20304;-80
2022/06/10 05:43:46;;;;;;;7.53;5.80;;;12.20;99.90;;;;;;5030021;28;20247;-81
2022/06/10 05:46:13;;;;;;;10.67;6.10;;;12.30;99.90;;;;;;5027080;28;20231;-81
2022/06/10 05:48:42;;;;;;;10.93;5.80;;;12.30;99.90;;;;;;5026899;28;20227;-80
2022/06/10 05:51:09;;;;;;;9.63;5.63;;;12.40;99.90;;;;;;5029481;28;20216;-80
2022/06/10 05:53:35;;;;;;;9.73;5.57;;;12.50;99.90;;;;;;5019583;28;20236;-81
2022/06/10 05:56:02;;;;;;;10.03;5.13;;;12.50;99.90;;;;;;5017350;28;20287;-80
2022/06/10 05:58:30;;;;;;;11.17;5.30;;;12.60;99.90;;;;;;5022793;28;20223;-81
2022/06/10 06:00:59;;;;;;;10.33;5.00;;;12.70;99.90;;;;;;5025182;28;20226;-80
2022/06/10 06:03:25;;;;;;;7.13;4.60;;;12.70;99.90;;;;;;5038400;28;20229;-80
2022/06/10 06:05:54;;;;;;;8.13;4.43;;;12.80;99.90;;;;;;5040288;28;20234;-80
2022/06/10 06:08:21;;;;;;;10.63;4.63;;;12.80;99.90;;;;;;5035277;28;20236;-80
2022/06/10 06:10:47;;;;;;;6.63;4.10;;;12.90;99.90;;;;;;5027360;28;20305;-80
2022/06/10 06:13:14;;;;;;;7.83;4.27;;;13.00;99.90;;;;;;5030055;28;20229;-80
2022/06/10 06:15:41;;;;;;;8.07;4.60;;;13.10;99.90;;;;;;5025250;28;20235;-80
2022/06/10 06:18:08;;;;;;;8.33;3.73;;;13.20;99.90;;;;;;5028510;28;20236;-80
2022/06/10 06:20:34;;;;;;;6.03;3.77;;;13.20;99.90;;;;;;5023143;28;20234;-80
2022/06/10 06:23:03;;;;;;;8.33;3.50;;;13.40;99.90;;;;;;5030098;28;20234;-80
2022/06/10 06:25:31;;;;;;;8.57;3.60;;;13.50;99.90;;;;;;5029693;28;20257;-80
2022/06/10 06:27:58;;;;;;;8.00;3.47;;;13.70;99.90;;;;;;5026693;28;20226;-80
2022/06/10 06:30:30;;;;;;;5.90;3.20;;;14.00;99.90;;;;;;5028091;28;20277;-81
2022/06/10 06:32:57;;;;;;;8.27;3.80;;;14.20;99.90;;;;;;5026434;28;20991;-81
2022/06/10 06:35:25;;;;;;;8.97;3.47;;;14.50;99.90;;;;;;5026875;28;20222;-80
2022/06/10 06:37:52;;;;;;;6.13;2.93;;;14.70;99.90;;;;;;5022093;28;21606;-81
2022/06/10 06:40:22;;;;;;;5.90;2.90;;;14.90;99.90;;;;;;5021495;28;20230;-80
2022/06/10 06:42:50;;;;;;;6.00;2.63;;;15.10;99.90;;;;;;5025924;28;20242;-81
2022/06/10 06:45:22;;;;;;;8.10;3.33;;;15.30;99.90;;;;;;5027096;28;20221;-80
2022/06/10 06:47:51;;;;;;;6.50;2.73;;;15.50;99.90;;;;;;5027422;28;20239;-80
2022/06/10 06:50:23;;;;;;;9.00;3.27;;;15.60;99.90;;;;;;5047807;28;20228;-80
2022/06/10 06:52:50;;;;;;;6.73;2.63;;;15.70;99.90;;;;;;5029904;28;20302;-81
2022/06/10 06:55:18;;;;;;;7.13;2.97;;;15.70;99.90;;;;;;5029056;28;20273;-82
2022/06/10 06:57:46;;;;;;;6.80;2.63;;;15.80;99.90;;;;;;5030832;28;20224;-81
2022/06/10 07:00:15;;;;;;;4.63;2.70;;;16.00;99.90;;;;;;5027618;28;20222;-81
2022/06/10 07:02:42;;;;;;;6.37;2.30;;;16.40;99.90;;;;;;5028511;28;20252;-82
2022/06/10 07:05:10;;;;;;;7.90;2.20;;;16.80;99.90;;;;;;5032759;28;20224;-81
2022/06/10 07:07:37;;;;;;;9.48;2.35;;;17.40;99.90;;;;;;5028942;28;20319;-81
2022/06/10 07:10:05;;;;;;;5.05;1.80;;;17.90;99.90;;;;;;5026472;28;20300;-81
2022/06/10 07:12:31;;;;;;;5.85;2.15;;;18.40;99.30;;;;;;5028135;28;20236;-80
2022/06/10 07:15:00;;;;;;;6.50;1.70;;;18.90;99.50;;;;;;5020662;28;20229;-81
2022/06/10 07:17:27;;;;;;;5.28;1.92;;;19.50;98.10;;;;;;5026765;28;20225;-82
2022/06/10 07:19:58;;;;;;;6.30;2.00;;;20.00;98.30;;;;;;5029758;28;20233;-81
2022/06/10 07:22:26;;;;;;;9.80;2.03;;;20.60;97.70;;;;;;5027036;28;20231;-81
2022/06/10 07:24:53;;;;;;;3.65;1.55;;;21.20;96.10;;;;;;5027345;28;20229;-81
2022/06/10 07:27:19;;;;;;;6.70;1.70;;;21.80;95.80;;;;;;5027331;28;20231;-82
2022/06/10 07:29:46;;;;;;;8.05;1.80;;;22.30;94.10;;;;;;5028226;28;20248;-82
2022/06/10 07:32:14;;;;;;;4.10;1.50;;;22.70;92.30;;;;;;5019471;28;20228;-82
2022/06/10 07:34:41;;;;;;;3.75;1.80;;;23.10;91.50;;;;;;5024963;28;20700;-81
2022/06/10 07:37:08;;;;;;;4.50;1.65;;;23.40;89.60;;;;;;5029341;28;20229;-80
2022/06/10 07:39:36;;;;;;;4.82;1.40;;;23.50;90.00;;;;;;5030502;28;20224;-82
2022/06/10 07:42:03;;;;;;;6.75;1.60;;;23.60;88.40;;;;;;5027490;28;20276;-81
2022/06/10 07:44:32;;;;;;;6.30;1.60;;;23.80;88.10;;;;;;5033889;28;20293;-83
2022/06/10 07:47:01;;;;;;;3.75;1.40;;;23.90;83.00;;;;;;5039551;28;20232;-82
2022/06/10 07:49:30;;;;;;;3.58;1.30;;;24.00;84.90;;;;;;5031721;28;20235;-84
2022/06/10 07:51:57;;;;;;;5.32;1.73;;;24.00;83.20;;;;;;5030672;28;20224;-83
2022/06/10 07:54:24;;;;;;;4.65;1.40;;;24.20;84.20;;;;;;5029208;28;20313;-84
2022/06/10 07:56:50;;;;;;;4.45;1.70;;;24.30;85.30;;;;;;5031605;28;20733;-82
2022/06/10 07:59:17;;;;;;;7.47;1.80;;;24.50;84.30;;;;;;5028339;28;20232;-82
2022/06/10 08:01:44;;;;;;;3.53;1.40;;;24.90;84.50;;;;;;5028354;28;20537;-82
2022/06/10 08:04:11;;;;;;;7.13;1.77;;;25.20;84.10;;;;;;5025401;28;20900;-82
2022/06/10 08:06:46;;;;;;;3.97;1.65;;;25.60;81.40;;;;;;5031024;28;20258;-83
2022/06/10 08:09:14;;;;;;;7.20;1.77;;;25.90;77.50;;;;;;5027380;28;20220;-82
2022/06/10 08:11:41;;;;;;;5.85;1.85;;;26.20;78.50;;;;;;5028149;28;20229;-82
2022/06/10 08:14:08;;;;;;;4.88;1.75;;;26.30;74.80;;;;;;5030310;28;20249;-83
2022/06/10 08:16:37;;;;;;;5.32;1.75;;;26.40;74.30;;;;;;5035710;28;20225;-82
2022/06/10 08:19:04;;;;;;;6.72;1.83;;;26.40;73.80;;;;;;5033572;28;20307;-81
2022/06/10 08:24:13;;;;;;;4.50;1.70;;;26.70;74.90;;;;;;5031772;28;20650;-83
2022/06/10 08:26:44;;;;;;;5.90;1.73;;;26.90;73.30;;;;;;5032617;28;20403;-83
2022/06/10 08:29:11;;;;;;;3.65;1.33;;;27.20;72.30;;;;;;5028977;28;21046;-83
2022/06/10 08:31:38;;;;;;;5.93;2.05;;;27.30;72.10;;;;;;5039738;28;20223;-83
2022/06/10 08:34:05;;;;;;;5.80;1.67;;;27.50;70.40;;;;;;5031711;28;20304;-85
2022/06/10 08:36:33;;;;;;;6.10;1.70;;;27.60;68.40;;;;;;5030222;28;20249;-83
2022/06/10 08:39:00;;;;;;;5.50;1.52;;;27.60;67.60;;;;;;5033600;28;21672;-86
2022/06/10 08:41:35;;;;;;;4.80;1.63;;;27.70;66.80;;;;;;5029064;28;20231;-83
2022/06/10 08:44:11;;;;;;;7.53;1.80;;;27.70;65.00;;;;;;5041253;28;20735;-84
2022/06/10 08:47:07;;;;;;;4.65;1.45;;;27.50;64.40;;;;;;5034531;28;20745;-82
2022/06/10 08:49:56;;;;;;;9.05;1.92;;;27.50;65.70;;;;;;5028838;28;20225;-81
2022/06/10 08:52:30;;;;;;;9.23;2.20;;;27.50;66.30;;;;;;5030813;28;20228;-82
2022/06/10 08:55:05;;;;;;;7.13;1.50;;;27.60;65.20;;;;;;5030986;28;20221;-82
2022/06/10 08:57:38;;;;;;;5.55;1.92;;;27.60;65.30;;;;;;5030956;28;20587;-81
2022/06/10 09:00:11;;;;;;;7.20;1.80;;;27.60;64.70;;;;;;5028885;28;20225;-82
2022/06/10 09:02:42;;;;;;;5.38;1.52;;;27.60;64.00;;;;;;5031563;28;20224;-82
2022/06/10 09:05:16;;;;;;;6.00;1.40;;;27.60;63.90;;;;;;5030400;28;20217;-82
2022/06/10 09:07:47;;;;;;;4.68;1.70;;;27.60;62.70;;;;;;5043433;28;20285;-82
2022/06/10 09:10:20;;;;;;;9.13;1.95;;;27.70;63.50;;;;;;5034709;28;20617;-82
2022/06/10 09:13:21;;;;;;;5.80;2.00;;;27.70;63.20;;;;;;5030158;28;20581;-81
2022/06/10 09:15:53;;;;;;;4.50;1.52;;;27.90;61.20;;;;;;5030736;28;20228;-82
2022/06/10 09:18:27;;;;;;;4.80;1.45;;;28.20;61.60;;;;;;5040941;28;20235;-82
2022/06/10 09:21:00;;;;;;;4.50;1.25;;;28.40;61.60;;;;;;5024349;28;20218;-82
2022/06/10 09:23:33;;;;;;;6.10;1.83;;;28.70;61.20;;;;;;5031121;28;20224;-82
2022/06/10 09:26:08;;;;;;;4.18;1.73;;;28.70;59.50;;;;;;5038503;28;20618;-82
2022/06/10 09:28:37;;;;;;;5.85;1.70;;;28.70;59.40;;;;;;5009704;28;20268;-82
2022/06/10 09:31:08;;;;;;;6.25;2.10;;;28.50;59.40;;;;;;5030458;28;20587;-82
2022/06/10 09:33:40;;;;;;;4.60;2.00;;;28.30;59.20;;;;;;5025303;28;20621;-82
2022/06/10 09:36:14;;;;;;;4.63;1.77;;;28.00;59.40;;;;;;5030920;28;20225;-81
2022/06/10 09:38:49;;;;;;;5.15;1.70;;;27.90;60.70;;;;;;5031705;28;20234;-82
2022/06/10 09:41:27;;;;;;;5.55;1.80;;;27.90;60.40;;;;;;5026666;28;20641;-82
2022/06/10 09:44:12;;;;;;;4.35;1.63;;;27.90;59.80;;;;;;5030680;28;20302;-82
2022/06/10 09:46:58;;;;;;;2.78;1.50;;;27.80;61.00;;;;;;5031236;28;20232;-82
2022/06/10 09:49:55;;;;;;;5.68;1.95;;;27.90;60.60;;;;;;5022307;28;20229;-81
2022/06/10 09:52:28;;;;;;;4.75;2.00;;;27.90;58.00;;;;;;5037842;28;20239;-83
2022/06/10 09:55:17;;;;;;;4.43;1.67;;;27.70;58.10;;;;;;5030845;28;20235;-80
2022/06/10 09:58:13;;;;;;;6.22;1.58;;;27.50;58.30;;;;;;5031014;28;20778;-81
2022/06/10 10:00:49;;;;;;;5.53;1.90;;;27.30;58.00;;;;;;5022734;28;20247;-81
2022/06/10 10:03:42;;;;;;;4.90;2.03;;;27.00;58.60;;;;;;5031401;28;20263;-81
2022/06/10 10:06:25;;;;;;;6.45;2.10;;;26.80;59.30;;;;;;5028774;28;20266;-81
2022/06/10 10:09:00;;;;;;;4.40;1.45;;;26.70;59.30;;;;;;5030177;28;20311;-81
2022/06/10 10:11:36;;;;;;;5.18;1.58;;;26.70;60.60;;;;;;5030114;28;20311;-82
2022/06/10 10:14:10;;;;;;;3.65;1.50;;;26.80;60.10;;;;;;5031608;28;20267;-81
2022/06/10 10:16:51;;;;;;;4.53;1.70;;;27.00;59.30;;;;;;5030783;28;20354;-81
2022/06/10 10:19:43;;;;;;;5.63;1.77;;;27.20;57.30;;;;;;5029167;28;20231;-82
2022/06/10 10:22:38;;;;;;;7.03;1.77;;;27.40;58.80;;;;;;5028967;28;20564;-82
2022/06/10 10:25:06;;;;;;;5.22;1.67;;;27.60;59.40;;;;;;5004771;28;20228;-82
2022/06/10 10:27:34;;;;;;;4.38;1.73;;;28.00;60.00;;;;;;5028649;28;20283;-81
2022/06/10 10:30:07;;;;;;;7.95;2.03;;;28.30;60.20;;;;;;5029196;28;20319;-81
2022/06/10 10:32:38;;;;;;;4.57;1.58;;;28.70;57.20;;;;;;5030940;28;20235;-82
2022/06/10 10:35:19;;;;;;;4.47;1.65;;;29.00;57.20;;;;;;5029359;28;20286;-80
2022/06/10 10:37:53;;;;;;;6.07;1.85;;;29.20;54.00;;;;;;5029807;28;20238;-81
2022/06/10 10:40:22;;;;;;;6.88;1.70;;;29.30;55.00;;;;;;5028614;28;20235;-81
2022/06/10 10:42:55;;;;;;;5.57;1.65;;;29.40;55.70;;;;;;5029115;28;20231;-82
2022/06/10 10:45:27;;;;;;;5.00;1.70;;;29.40;55.90;;;;;;5019430;28;20233;-81
2022/06/10 10:47:59;;;;;;;4.95;2.00;;;29.50;54.90;;;;;;5022070;28;20235;-81
2022/06/10 10:50:31;;;;;;;5.53;2.05;;;29.50;53.90;;;;;;5029374;28;20220;-81
2022/06/10 10:52:59;;;;;;;5.43;2.05;;;29.50;53.80;;;;;;5032007;28;20232;-81
2022/06/10 10:55:32;;;;;;;4.15;1.55;;;29.40;53.70;;;;;;5029550;28;20250;-81
2022/06/10 10:58:08;;;;;;;6.85;1.77;;;29.40;54.30;;;;;;5030090;28;20224;-81
2022/06/10 11:00:38;;;;;;;3.28;1.60;;;29.50;53.80;;;;;;5031795;28;20220;-87
2022/06/10 11:03:07;;;;;;;4.72;1.65;;;29.60;54.20;;;;;;5032946;28;20307;-85
2022/06/10 11:05:38;;;;;;;2.65;1.40;;;29.80;54.50;;;;;;5027512;28;20224;-85
2022/06/10 11:08:22;;;;;;;3.95;1.80;;;30.00;53.70;;;;;;5034142;28;20220;-85
2022/06/10 11:11:15;;;;;;;4.90;1.50;;;30.10;52.50;;;;;;5028424;28;20230;-86
2022/06/10 11:13:54;;;;;;;5.22;1.55;;;30.20;53.70;;;;;;5030224;28;20232;-85
2022/06/10 11:16:45;;;;;;;4.63;1.40;;;30.30;52.50;;;;;;5031644;28;20254;-84
2022/06/10 11:19:26;;;;;;;5.22;1.85;;;30.00;51.00;;;;;;5036435;28;20224;-85
2022/06/10 11:21:56;;;;;;;5.00;1.77;;;29.80;52.00;;;;;;5033311;28;20285;-84
2022/06/10 11:24:27;;;;;;;7.20;1.60;;;29.60;51.90;;;;;;5045267;28;20242;-83
2022/06/10 11:26:57;;;;;;;6.50;1.60;;;29.40;51.80;;;;;;5033350;28;20274;-84
2022/06/10 11:29:24;;;;;;;6.10;2.00;;;29.20;52.00;;;;;;5034056;28;20244;-86
2022/06/10 11:31:58;;;;;;;4.35;1.52;;;29.00;52.60;;;;;;5041088;28;20656;-84
2022/06/10 11:34:33;;;;;;;3.95;1.30;;;28.80;52.50;;;;;;5041945;28;20227;-86
2022/06/10 11:37:00;;;;;;;7.50;1.63;;;28.70;52.70;;;;;;5034788;28;20232;-86
2022/06/10 11:39:31;;;;;;;2.65;1.33;;;28.70;52.70;;;;;;5031549;28;20224;-85
2022/06/10 11:42:08;;;;;;;4.90;1.45;;;28.60;52.40;;;;;;5038392;28;20234;-84
2022/06/10 11:44:42;;;;;;;4.55;1.58;;;28.50;52.30;;;;;;5041145;28;20722;-86
2022/06/10 11:47:19;;;;;;;3.78;1.30;;;28.40;52.60;;;;;;5031262;28;20220;-85
2022/06/10 11:49:56;;;;;;;4.57;1.55;;;28.20;53.40;;;;;;5031043;28;20720;-87
2022/06/10 11:52:30;;;;;;;2.65;1.42;;;28.10;52.50;;;;;;5034465;28;20224;-82
2022/06/10 11:55:05;;;;;;;4.88;1.77;;;28.00;53.60;;;;;;5037450;28;20220;-85
2022/06/10 12:00:31;;;;;;;3.90;1.58;;;28.10;54.10;;;;;;5026572;28;20236;-84
2022/06/10 12:03:10;;;;;;;4.03;1.67;;;28.20;53.90;;;;;;5033655;28;20709;-86
2022/06/10 12:05:52;;;;;;;5.25;1.75;;;28.30;53.00;;;;;;5038629;28;20227;-85
2022/06/10 12:08:30;;;;;;;4.60;1.73;;;28.20;52.90;;;;;;5031853;28;20320;-84
2022/06/10 12:11:03;;;;;;;3.55;1.40;;;28.10;53.90;;;;;;5031523;28;20240;-83
2022/06/10 12:13:37;;;;;;;5.53;1.58;;;28.00;54.10;;;;;;5018927;28;20235;-83
2022/06/10 12:16:06;;;;;;;4.05;1.52;;;28.00;55.00;;;;;;5040061;28;20220;-86
2022/06/10 12:18:40;;;;;;;3.58;1.65;;;28.10;54.70;;;;;;5022477;28;20312;-83
2022/06/10 12:21:16;;;;;;;6.07;1.80;;;28.20;54.50;;;;;;5028805;28;20239;-83
2022/06/10 12:23:45;;;;;;;4.97;1.75;;;28.40;54.30;;;;;;5030662;28;20231;-82
2022/06/10 12:26:23;;;;;;;5.40;1.60;;;28.50;54.50;;;;;;5029685;28;20223;-83
2022/06/10 12:28:54;;;;;;;3.60;1.98;;;28.70;53.80;;;;;;5033394;28;20641;-83
2022/06/10 12:31:35;;;;;;;5.60;1.92;;;28.70;53.70;;;;;;5030471;28;20236;-82
2022/06/10 12:34:11;;;;;;;4.82;1.95;;;28.70;52.90;;;;;;5021709;28;21199;-82
2022/06/10 12:36:42;;;;;;;3.08;1.33;;;28.50;53.50;;;;;;5023401;28;20297;-83
2022/06/10 12:39:19;;;;;;;3.63;1.65;;;28.40;53.60;;;;;;5025878;28;20221;-82
2022/06/10 12:41:51;;;;;;;3.38;1.42;;;28.10;53.10;;;;;;5029236;28;20220;-82
2022/06/10 12:44:23;;;;;;;5.25;1.60;;;27.90;53.50;;;;;;5028907;28;20228;-82
2022/06/10 12:46:54;;;;;;;3.92;1.42;;;27.70;54.10;;;;;;5031517;28;20225;-82
2022/06/10 12:49:28;;;;;;;3.25;1.52;;;27.60;54.20;;;;;;5036727;28;20236;-83
2022/06/10 12:52:22;;;;;;;4.47;2.00;;;27.40;54.80;;;;;;5030674;28;20215;-82
2022/06/10 12:54:57;;;;;;;6.35;1.85;;;27.20;54.80;;;;;;5041507;28;20221;-83
2022/06/10 12:57:42;;;;;;;3.50;1.65;;;27.10;56.10;;;;;;5028819;28;20315;-83
2022/06/10 13:00:44;;;;;;;4.28;1.80;;;26.90;55.80;;;;;;5023370;28;20315;-82
2022/06/10 13:03:34;;;;;;;3.42;1.77;;;26.90;56.50;;;;;;5012699;28;20873;-82
2022/06/10 13:06:26;;;;;;;4.30;1.63;;;26.80;56.70;;;;;;5032243;28;20308;-82
2022/06/10 13:08:57;;;;;;;3.75;2.03;;;26.70;56.80;;;;;;5027004;28;20331;-82
2022/06/10 13:11:35;;;;;;;6.80;2.33;;;26.70;56.90;;;;;;5033555;28;20247;-82
2022/06/10 13:14:22;;;;;;;5.53;2.25;;;26.50;57.50;;;;;;5022910;28;20387;-82
2022/06/10 13:17:13;;;;;;;5.72;2.25;;;26.40;57.40;;;;;;5011995;28;20244;-82
2022/06/10 13:19:44;;;;;;;6.05;2.47;;;26.30;57.90;;;;;;5027369;28;20231;-83
2022/06/10 13:22:35;;;;;;;6.43;2.30;;;26.20;57.90;;;;;;5022120;28;20224;-82
2022/06/10 13:25:24;;;;;;;5.63;2.22;;;26.10;58.70;;;;;;5020467;28;20858;-82
2022/06/10 13:27:51;;;;;;;4.53;2.15;;;26.00;59.00;;;;;;5022578;28;20331;-82